createdAt,value
2023-04-07T00:00:38.784Z,63.12
2023-04-07T00:03:09.021Z,62.50
2023-04-07T00:05:37.746Z,62.60
2023-04-07T00:08:06.726Z,62.19
2023-04-07T00:10:37.160Z,61.70
2023-04-07T00:13:05.905Z,61.54
2023-04-07T00:15:34.714Z,61.51
2023-04-07T00:18:03.781Z,61.27
2023-04-07T00:20:32.526Z,61.29
2023-04-07T00:23:01.185Z,61.70
2023-04-07T00:25:29.848Z,61.60
2023-04-07T00:28:00.088Z,62.54
2023-04-07T00:30:28.879Z,63.79
2023-04-07T00:32:57.780Z,64.36
2023-04-07T00:35:27.672Z,63.04
2023-04-07T00:37:57.115Z,62.84
2023-04-07T00:40:26.227Z,63.12
2023-04-07T00:42:54.955Z,62.90
2023-04-07T00:45:25.110Z,63.38
2023-04-07T00:47:54.130Z,64.25
2023-04-07T00:50:23.288Z,64.41
2023-04-07T00:52:52.909Z,64.63
2023-04-07T00:55:21.639Z,63.82
2023-04-07T00:57:51.858Z,64.33
2023-04-07T01:00:21.704Z,64.65
2023-04-07T01:03:01.363Z,64.85
2023-04-07T01:05:43.973Z,64.22
2023-04-07T01:08:20.846Z,63.69
2023-04-07T01:10:55.647Z,63.50
2023-04-07T01:13:32.003Z,64.16
2023-04-07T01:16:18.440Z,64.26
2023-04-07T01:18:58.619Z,65.34
2023-04-07T01:21:30.027Z,65.06
2023-04-07T01:24:30.148Z,65.75
2023-04-07T01:27:15.421Z,65.09
2023-04-07T01:29:50.635Z,65.92
2023-04-07T01:32:22.409Z,66.53
2023-04-07T01:34:53.657Z,66.88
2023-04-07T01:37:23.144Z,65.59
2023-04-07T01:39:52.106Z,64.91
2023-04-07T01:42:22.223Z,65.41
2023-04-07T01:44:54.424Z,66.25
2023-04-07T01:47:23.547Z,66.47
2023-04-07T01:49:53.656Z,66.08
2023-04-07T01:52:30.639Z,66.08
2023-04-07T01:54:59.663Z,66.46
2023-04-07T01:57:28.716Z,66.30
2023-04-07T02:00:05.277Z,66.16
2023-04-07T02:02:51.198Z,66.03
2023-04-07T02:05:23.944Z,65.43
2023-04-07T02:07:59.425Z,65.04
2023-04-07T02:10:31.154Z,65.76
2023-04-07T02:13:05.171Z,66.71
2023-04-07T02:15:37.983Z,66.06
2023-04-07T02:18:10.693Z,66.89
2023-04-07T02:20:42.612Z,66.86
2023-04-07T02:23:14.648Z,66.70
2023-04-07T02:25:43.688Z,66.84
2023-04-07T02:28:12.393Z,66.48
2023-04-07T02:30:42.469Z,66.74
2023-04-07T02:33:11.155Z,66.51
2023-04-07T02:35:39.951Z,67.17
2023-04-07T02:38:08.680Z,66.84
2023-04-07T02:40:38.249Z,66.61
2023-04-07T02:43:07.139Z,66.01
2023-04-07T02:45:35.870Z,65.47
2023-04-07T02:48:07.708Z,65.35
2023-04-07T02:50:36.393Z,65.34
2023-04-07T02:53:05.078Z,66.47
2023-04-07T02:55:33.798Z,66.66
2023-04-07T02:58:02.499Z,66.04
2023-04-07T03:00:44.371Z,65.87
2023-04-07T03:03:24.150Z,65.53
2023-04-07T03:06:15.874Z,65.17
2023-04-07T03:08:59.444Z,64.93
2023-04-07T03:11:28.294Z,65.95
2023-04-07T03:13:59.044Z,66.18
2023-04-07T03:16:29.607Z,67.28
2023-04-07T03:19:12.070Z,66.79
2023-04-07T03:21:45.008Z,66.14
2023-04-07T03:24:13.702Z,66.43
2023-04-07T03:26:42.436Z,66.22
2023-04-07T03:29:24.248Z,66.97
2023-04-07T03:31:54.413Z,66.69
2023-04-07T03:34:28.798Z,66.88
2023-04-07T03:37:00.920Z,66.89
2023-04-07T03:39:32.766Z,67.77
2023-04-07T03:42:03.436Z,68.09
2023-04-07T03:44:35.207Z,68.60
2023-04-07T03:47:04.067Z,68.80
2023-04-07T03:49:37.890Z,68.97
2023-04-07T03:52:07.952Z,69.31
2023-04-07T03:54:36.902Z,69.61
2023-04-07T03:57:07.365Z,69.24
2023-04-07T03:59:42.029Z,68.29
2023-04-07T04:02:10.873Z,68.13
2023-04-07T04:04:41.793Z,68.33
2023-04-07T04:07:12.085Z,68.38
2023-04-07T04:09:52.769Z,68.65
2023-04-07T04:12:22.035Z,69.27
2023-04-07T04:15:04.811Z,69.00
2023-04-07T04:17:34.357Z,68.85
2023-04-07T04:20:08.177Z,69.06
2023-04-07T04:22:50.867Z,69.94
2023-04-07T04:25:22.875Z,69.24
2023-04-07T04:27:56.064Z,68.87
2023-04-07T04:30:40.871Z,69.45
2023-04-07T04:33:14.073Z,69.58
2023-04-07T04:35:52.954Z,68.88
2023-04-07T04:38:24.273Z,68.40
2023-04-07T04:40:59.504Z,67.93
2023-04-07T04:43:33.876Z,68.86
2023-04-07T04:46:05.541Z,68.97
2023-04-07T04:48:40.930Z,68.14
2023-04-07T04:51:12.035Z,67.75
2023-04-07T04:53:43.157Z,68.05
2023-04-07T04:56:12.146Z,68.68
2023-04-07T04:58:47.449Z,68.22
2023-04-07T05:01:28.011Z,68.46
2023-04-07T05:04:05.067Z,68.57
2023-04-07T05:06:37.796Z,68.65
2023-04-07T05:09:11.369Z,69.16
2023-04-07T05:11:46.151Z,69.36
2023-04-07T05:14:15.181Z,68.91
2023-04-07T05:16:50.744Z,68.83
2023-04-07T05:19:23.403Z,68.44
2023-04-07T05:21:56.574Z,68.30
2023-04-07T05:24:29.898Z,68.07
2023-04-07T05:27:02.512Z,68.52
2023-04-07T05:29:32.957Z,68.89
2023-04-07T05:32:02.524Z,69.11
2023-04-07T05:34:33.531Z,68.93
2023-04-07T05:37:03.896Z,68.46
2023-04-07T05:39:33.898Z,68.33
2023-04-07T05:42:05.581Z,68.04
2023-04-07T05:44:34.804Z,68.17
2023-04-07T05:47:05.986Z,68.27
2023-04-07T05:49:35.725Z,67.90
2023-04-07T05:52:09.806Z,68.11
2023-04-07T05:54:43.981Z,67.39
2023-04-07T05:57:15.989Z,67.12
2023-04-07T05:59:48.741Z,67.51
2023-04-07T06:02:17.632Z,67.65
2023-04-07T06:04:49.399Z,68.04
2023-04-07T06:07:21.727Z,66.85
2023-04-07T06:09:51.347Z,67.32
2023-04-07T06:12:20.987Z,66.63
2023-04-07T06:14:56.609Z,66.75
2023-04-07T06:17:25.602Z,67.26
2023-04-07T06:19:54.508Z,66.74
2023-04-07T06:22:24.668Z,67.24
2023-04-07T06:24:53.594Z,67.85
2023-04-07T06:27:23.347Z,66.97
2023-04-07T06:29:52.641Z,67.18
2023-04-07T06:32:21.693Z,67.14
2023-04-07T06:34:50.765Z,67.12
2023-04-07T06:37:19.677Z,67.23
2023-04-07T06:39:50.043Z,67.22
2023-04-07T06:42:18.772Z,66.27
2023-04-07T06:44:59.044Z,66.24
2023-04-07T06:47:28.380Z,67.04
2023-04-07T06:49:57.142Z,67.61
2023-04-07T06:52:25.854Z,67.15
2023-04-07T06:54:55.924Z,66.53
2023-04-07T06:57:24.684Z,66.90
2023-04-07T06:59:53.519Z,66.69
2023-04-07T07:02:22.468Z,66.54
2023-04-07T07:04:51.587Z,66.38
2023-04-07T07:07:26.069Z,66.20
2023-04-07T07:10:02.849Z,65.27
2023-04-07T07:12:32.470Z,65.45
2023-04-07T07:15:02.255Z,65.07
2023-04-07T07:17:32.033Z,64.69
2023-04-07T07:20:01.428Z,63.89
2023-04-07T07:22:30.122Z,62.57
2023-04-07T07:25:00.315Z,62.22
2023-04-07T07:27:30.150Z,59.66
2023-04-07T07:29:59.368Z,58.68
2023-04-07T07:32:28.460Z,57.17
2023-04-07T07:34:57.918Z,52.00
2023-04-07T07:37:26.771Z,52.25
2023-04-07T07:39:56.358Z,51.49
2023-04-07T07:42:32.834Z,51.03
2023-04-07T07:45:06.959Z,50.96
2023-04-07T07:47:43.034Z,50.65
2023-04-07T07:50:17.730Z,47.10
2023-04-07T07:53:18.720Z,46.48
2023-04-07T07:55:57.254Z,47.52
2023-04-07T07:58:29.338Z,47.04
2023-04-07T08:01:10.601Z,47.03
2023-04-07T08:03:42.064Z,45.94
2023-04-07T08:06:21.349Z,45.46
2023-04-07T08:08:58.452Z,44.01
2023-04-07T08:11:31.209Z,43.94
2023-04-07T08:14:03.341Z,43.70
2023-04-07T08:16:38.226Z,43.31
2023-04-07T08:19:14.359Z,43.65
2023-04-07T08:21:46.438Z,42.90
2023-04-07T08:24:18.251Z,42.28
2023-04-07T08:26:50.712Z,41.78
2023-04-07T08:29:29.950Z,42.28
2023-04-07T08:32:03.702Z,43.26
2023-04-07T08:34:34.531Z,42.23
2023-04-07T08:37:14.105Z,40.83
2023-04-07T08:39:48.214Z,41.35
2023-04-07T08:42:32.638Z,41.50
2023-04-07T08:45:13.187Z,42.57
2023-04-07T08:47:45.827Z,41.80
2023-04-07T08:50:22.985Z,42.05
2023-04-07T08:52:56.181Z,42.39
2023-04-07T08:55:51.813Z,42.15
2023-04-07T08:58:29.962Z,42.25
2023-04-07T09:01:04.213Z,40.32
2023-04-07T09:03:40.398Z,41.10
2023-04-07T09:06:15.485Z,40.66
2023-04-07T09:08:48.809Z,40.31
2023-04-07T09:11:27.823Z,39.89
2023-04-07T09:14:01.888Z,40.31
2023-04-07T09:16:38.552Z,39.86
2023-04-07T09:19:15.268Z,39.93
2023-04-07T09:21:51.795Z,40.21
2023-04-07T09:24:26.397Z,40.41
2023-04-07T09:27:12.361Z,40.64
2023-04-07T09:29:43.550Z,40.65
2023-04-07T09:32:14.965Z,39.78
2023-04-07T09:34:43.940Z,39.83
2023-04-07T09:37:24.163Z,40.16
2023-04-07T09:39:54.624Z,39.48
2023-04-07T09:42:23.582Z,39.71
2023-04-07T09:44:52.690Z,40.49
2023-04-07T09:47:29.243Z,40.15
2023-04-07T09:49:59.932Z,37.71
2023-04-07T09:52:53.620Z,38.57
2023-04-07T09:55:24.313Z,38.63
2023-04-07T09:57:55.465Z,39.73
2023-04-07T10:00:24.967Z,39.21
2023-04-07T10:02:55.626Z,38.09
2023-04-07T10:05:26.510Z,38.05
2023-04-07T10:07:55.732Z,38.95
2023-04-07T10:10:25.032Z,37.90
2023-04-07T10:12:57.105Z,38.37
2023-04-07T10:15:26.722Z,39.15
2023-04-07T10:17:57.950Z,38.36
2023-04-07T10:20:28.166Z,39.30
2023-04-07T10:23:06.035Z,37.81
2023-04-07T10:25:36.497Z,38.25
2023-04-07T10:28:11.944Z,38.46
2023-04-07T10:30:42.025Z,38.07
2023-04-07T10:33:12.202Z,37.54
2023-04-07T10:36:07.488Z,38.46
2023-04-07T10:38:36.412Z,38.21
2023-04-07T10:41:36.951Z,38.54
2023-04-07T10:44:06.813Z,38.25
2023-04-07T10:47:07.168Z,38.41
2023-04-07T10:49:38.065Z,37.26
2023-04-07T10:52:26.420Z,37.76
2023-04-07T10:55:32.924Z,37.08
2023-04-07T10:58:23.006Z,37.56
2023-04-07T11:01:29.019Z,37.01
2023-04-07T11:04:01.293Z,36.35
2023-04-07T11:06:31.681Z,37.02
2023-04-07T11:09:00.706Z,35.59
2023-04-07T11:11:43.324Z,36.24
2023-04-07T11:14:12.024Z,37.15
2023-04-07T11:16:45.663Z,37.24
2023-04-07T11:19:14.351Z,36.69
2023-04-07T11:21:44.465Z,36.34
2023-04-07T11:24:33.214Z,35.16
2023-04-07T11:27:02.506Z,35.67
2023-04-07T11:29:32.536Z,35.06
2023-04-07T11:32:03.647Z,34.33
2023-04-07T11:34:33.674Z,34.30
2023-04-07T11:37:21.752Z,34.63
2023-04-07T11:39:54.567Z,34.84
2023-04-07T11:42:34.768Z,34.70
2023-04-07T11:45:05.024Z,34.03
2023-04-07T11:47:38.744Z,33.29
2023-04-07T11:50:09.046Z,32.78
2023-04-07T11:52:45.408Z,33.22
2023-04-07T11:55:22.452Z,31.86
2023-04-07T11:57:52.375Z,32.39
2023-04-07T12:00:22.438Z,32.65
2023-04-07T12:02:51.611Z,32.81
2023-04-07T12:05:20.601Z,34.48
2023-04-07T12:07:57.841Z,32.38
2023-04-07T12:10:27.193Z,31.69
2023-04-07T12:12:58.169Z,33.50
2023-04-07T12:15:28.106Z,33.29
2023-04-07T12:17:57.312Z,31.68
2023-04-07T12:20:25.990Z,32.20
2023-04-07T12:22:56.117Z,29.48
2023-04-07T12:25:24.994Z,29.67
2023-04-07T12:27:53.804Z,30.74
2023-04-07T12:30:22.761Z,31.51
2023-04-07T12:32:52.841Z,31.39
2023-04-07T12:35:21.938Z,31.39
2023-04-07T12:37:52.084Z,31.81
2023-04-07T12:40:22.341Z,31.89
2023-04-07T12:42:52.142Z,32.21
2023-04-07T12:45:20.795Z,33.82
2023-04-07T12:47:49.463Z,33.86
2023-04-07T12:50:18.776Z,32.91
2023-04-07T12:52:48.545Z,31.76
2023-04-07T12:55:17.645Z,32.10
2023-04-07T12:57:47.734Z,32.23
2023-04-07T13:00:16.940Z,32.64
2023-04-07T13:02:45.868Z,32.26
2023-04-07T13:05:14.766Z,31.97
2023-04-07T13:07:43.429Z,32.69
2023-04-07T13:10:12.566Z,31.71
2023-04-07T13:12:42.269Z,31.80
2023-04-07T13:15:12.630Z,32.79
2023-04-07T13:17:41.512Z,34.46
2023-04-07T13:20:11.306Z,33.83
2023-04-07T13:22:49.134Z,33.12
2023-04-07T13:25:24.578Z,33.74
2023-04-07T13:27:53.769Z,33.68
2023-04-07T13:30:26.387Z,33.74
2023-04-07T13:32:56.419Z,32.79
2023-04-07T13:35:25.258Z,34.26
2023-04-07T13:37:55.055Z,33.89
2023-04-07T13:40:23.772Z,33.72
2023-04-07T13:42:52.538Z,34.50
2023-04-07T13:45:21.698Z,34.11
2023-04-07T13:47:52.069Z,32.62
2023-04-07T13:50:21.456Z,32.57
2023-04-07T13:52:50.314Z,31.92
2023-04-07T13:55:20.429Z,31.87
2023-04-07T13:57:49.286Z,30.88
2023-04-07T14:00:19.124Z,32.17
2023-04-07T14:02:48.556Z,31.60
2023-04-07T14:05:28.479Z,28.91
2023-04-07T14:07:58.524Z,27.06
2023-04-07T14:10:28.488Z,25.87
2023-04-07T14:12:57.676Z,27.04
2023-04-07T14:15:29.333Z,26.97
2023-04-07T14:17:58.262Z,27.90
2023-04-07T14:20:28.860Z,26.18
2023-04-07T14:22:58.789Z,25.56
2023-04-07T14:25:31.050Z,25.23
2023-04-07T14:28:02.445Z,25.25
2023-04-07T14:30:34.564Z,25.76
2023-04-07T14:33:05.149Z,26.58
2023-04-07T14:35:38.335Z,27.70
2023-04-07T14:38:07.128Z,29.17
2023-04-07T14:40:37.311Z,30.17
2023-04-07T14:43:22.121Z,31.35
2023-04-07T14:46:03.825Z,31.88
2023-04-07T14:48:33.237Z,32.29
2023-04-07T14:51:09.896Z,32.39
2023-04-07T14:53:40.137Z,31.53
2023-04-07T14:56:10.563Z,32.33
2023-04-07T14:58:40.680Z,32.85
2023-04-07T15:01:10.683Z,32.85
2023-04-07T15:03:40.206Z,32.38
2023-04-07T15:06:14.016Z,33.88
2023-04-07T15:08:42.842Z,33.50
2023-04-07T15:11:11.825Z,33.04
2023-04-07T15:13:40.654Z,34.20
2023-04-07T15:16:15.929Z,34.14
2023-04-07T15:18:47.966Z,33.29
2023-04-07T15:21:18.537Z,33.43
2023-04-07T15:23:48.649Z,33.27
2023-04-07T15:26:17.555Z,35.13
2023-04-07T15:28:46.345Z,33.98
2023-04-07T15:31:17.795Z,34.04
2023-04-07T15:33:58.522Z,34.78
2023-04-07T15:36:32.787Z,35.83
2023-04-07T15:39:07.118Z,35.59
2023-04-07T15:41:36.888Z,35.24
2023-04-07T15:44:06.922Z,34.80
2023-04-07T15:46:48.242Z,35.79
2023-04-07T15:49:25.693Z,35.85
2023-04-07T15:52:01.186Z,36.23
2023-04-07T15:54:34.749Z,36.55
2023-04-07T15:57:20.362Z,36.40
2023-04-07T15:59:51.004Z,36.95
2023-04-07T16:02:26.417Z,36.71
2023-04-07T16:05:00.562Z,37.70
2023-04-07T16:07:33.393Z,38.34
2023-04-07T16:10:08.598Z,37.93
2023-04-07T16:12:43.909Z,36.75
2023-04-07T16:15:36.832Z,36.98
2023-04-07T16:18:14.925Z,36.88
2023-04-07T16:20:47.848Z,37.74
2023-04-07T16:23:25.291Z,37.18
2023-04-07T16:25:57.555Z,37.13
2023-04-07T16:28:33.088Z,37.39
2023-04-07T16:31:09.587Z,37.30
2023-04-07T16:33:40.579Z,37.13
2023-04-07T16:36:09.876Z,37.63
2023-04-07T16:38:46.204Z,38.19
2023-04-07T16:41:15.453Z,38.90
2023-04-07T16:43:44.346Z,39.20
2023-04-07T16:46:14.338Z,38.79
2023-04-07T16:53:29.069Z,39.06
2023-04-07T16:56:01.691Z,39.65
2023-04-07T16:58:34.972Z,40.28
2023-04-07T17:01:05.183Z,40.44
2023-04-07T17:03:34.075Z,40.31
2023-04-07T17:06:05.655Z,40.78
2023-04-07T17:08:39.736Z,41.30
2023-04-07T17:11:11.028Z,41.43
2023-04-07T17:13:56.437Z,41.49
2023-04-07T17:16:52.118Z,41.68
2023-04-07T17:19:21.099Z,42.45
2023-04-07T17:21:50.141Z,42.63
2023-04-07T17:24:19.901Z,42.16
2023-04-07T17:26:51.318Z,42.27
2023-04-07T17:29:21.126Z,41.97
2023-04-07T17:31:51.392Z,42.87
2023-04-07T17:34:20.018Z,42.87
2023-04-07T17:36:50.870Z,43.37
2023-04-07T17:39:21.959Z,44.05
2023-04-07T17:41:53.112Z,44.19
2023-04-07T17:44:24.113Z,44.59
2023-04-07T17:46:53.753Z,44.75
2023-04-07T17:49:24.625Z,44.44
2023-04-07T17:51:54.125Z,44.25
2023-04-07T17:54:23.007Z,44.36
2023-04-07T17:56:53.341Z,44.40
2023-04-07T17:59:23.117Z,44.46
2023-04-07T18:01:51.961Z,44.53
2023-04-07T18:04:21.226Z,44.81
2023-04-07T18:06:54.896Z,44.62
2023-04-07T18:09:26.658Z,44.64
2023-04-07T18:12:04.122Z,45.77
2023-04-07T18:18:49.320Z,46.71
2023-04-07T18:25:14.088Z,47.24
2023-04-07T18:28:08.749Z,49.05
2023-04-07T18:31:51.314Z,49.14
2023-04-07T18:34:22.007Z,49.06
2023-04-07T18:36:58.621Z,49.54
2023-04-07T18:39:39.159Z,48.95
2023-04-07T18:42:47.776Z,49.23
2023-04-07T18:45:50.644Z,49.73
2023-04-07T18:48:58.049Z,49.93
2023-04-07T18:51:34.371Z,50.48
2023-04-07T18:58:12.566Z,51.27
2023-04-07T19:01:24.857Z,52.19
2023-04-07T19:04:25.836Z,51.73
2023-04-07T19:07:18.705Z,52.46
2023-04-07T19:10:09.479Z,53.23
2023-04-07T19:12:43.045Z,53.37
2023-04-07T19:15:45.925Z,53.71
2023-04-07T19:18:29.560Z,54.15
2023-04-07T19:21:01.701Z,53.90
2023-04-07T19:23:45.298Z,54.24
2023-04-07T19:26:20.183Z,55.86
2023-04-07T19:29:06.229Z,56.07
2023-04-07T19:31:45.174Z,57.90
2023-04-07T19:34:22.867Z,57.29
2023-04-07T19:37:03.364Z,57.06
2023-04-07T19:39:36.773Z,58.08
2023-04-07T19:42:10.197Z,57.94
2023-04-07T19:44:40.381Z,58.56
2023-04-07T19:47:21.781Z,58.61
2023-04-07T19:50:03.716Z,60.51
2023-04-07T19:52:50.577Z,60.98
2023-04-07T19:59:01.657Z,62.32
2023-04-07T20:01:32.956Z,62.87
2023-04-07T20:05:23.738Z,62.66
2023-04-07T20:08:18.884Z,65.43
2023-04-07T20:11:22.091Z,64.21
2023-04-07T20:13:55.080Z,64.64
2023-04-07T20:16:25.159Z,66.37
2023-04-07T20:19:02.357Z,65.45
2023-04-07T20:21:41.793Z,66.91
2023-04-07T20:24:20.476Z,67.00
2023-04-07T20:26:55.025Z,66.62
2023-04-07T20:29:31.468Z,66.24
2023-04-07T20:32:03.840Z,65.82
2023-04-07T20:34:33.369Z,66.12
2023-04-07T20:37:02.674Z,66.03
2023-04-07T20:39:33.667Z,66.53
2023-04-07T20:42:37.383Z,66.68
2023-04-07T20:45:07.867Z,67.57
2023-04-07T20:47:37.371Z,68.87
2023-04-07T20:50:09.566Z,67.40
2023-04-07T20:52:44.085Z,67.08
2023-04-07T20:55:15.446Z,67.61
2023-04-07T20:57:46.512Z,67.13
2023-04-07T21:00:17.686Z,68.20
2023-04-07T21:02:48.824Z,68.16
2023-04-07T21:05:18.619Z,68.87
2023-04-07T21:07:48.166Z,68.96
2023-04-07T21:10:19.466Z,69.36
2023-04-07T21:12:48.848Z,68.90
2023-04-07T21:15:17.883Z,68.94
2023-04-07T21:17:46.569Z,69.01
2023-04-07T21:20:20.688Z,70.07
2023-04-07T21:22:49.417Z,70.01
2023-04-07T21:25:19.757Z,70.69
2023-04-07T21:27:48.543Z,70.71
2023-04-07T21:30:18.164Z,70.35
2023-04-07T21:32:47.306Z,70.91
2023-04-07T21:35:16.259Z,72.33
2023-04-07T21:37:44.957Z,71.24
2023-04-07T21:40:13.820Z,71.01
2023-04-07T21:42:43.989Z,71.12
2023-04-07T21:45:13.468Z,70.70
2023-04-07T21:47:42.211Z,70.71
2023-04-07T21:50:12.633Z,71.40
2023-04-07T21:52:42.533Z,71.47
2023-04-07T21:55:11.920Z,72.88
2023-04-07T21:57:40.635Z,73.62
2023-04-07T22:00:14.177Z,73.58
2023-04-07T22:02:46.815Z,74.27
2023-04-07T22:05:19.083Z,73.46
2023-04-07T22:07:48.653Z,73.49
2023-04-07T22:10:19.458Z,72.82
2023-04-07T22:12:48.162Z,74.09
2023-04-07T22:15:18.382Z,74.07
2023-04-07T22:17:47.269Z,75.70
2023-04-07T22:20:16.060Z,75.74
2023-04-07T22:22:44.758Z,75.45
2023-04-07T22:25:13.472Z,76.23
2023-04-07T22:27:42.193Z,74.84
2023-04-07T22:30:11.296Z,75.59
2023-04-07T22:32:41.561Z,75.08
2023-04-07T22:35:11.191Z,74.85
2023-04-07T22:37:39.929Z,76.36
2023-04-07T22:40:10.827Z,77.02
2023-04-07T22:42:41.033Z,77.42
2023-04-07T22:45:10.980Z,78.42
2023-04-07T22:47:41.627Z,77.58
2023-04-07T22:50:11.805Z,78.05
2023-04-07T22:52:40.569Z,77.96
2023-04-07T22:55:11.106Z,77.08
2023-04-07T22:57:39.841Z,76.99
2023-04-07T23:00:10.092Z,76.89
2023-04-07T23:02:40.374Z,76.93
2023-04-07T23:05:10.564Z,76.34
2023-04-07T23:07:39.416Z,77.53
2023-04-07T23:10:10.075Z,77.48
2023-04-07T23:12:39.170Z,77.99
2023-04-07T23:15:09.154Z,78.87
2023-04-07T23:17:38.061Z,78.30
2023-04-07T23:20:10.493Z,78.37
2023-04-07T23:22:39.239Z,79.33
2023-04-07T23:25:09.428Z,77.90
2023-04-07T23:27:38.150Z,79.06
2023-04-07T23:30:08.595Z,79.35
2023-04-07T23:32:37.541Z,79.08
2023-04-07T23:35:08.733Z,79.80
2023-04-07T23:37:37.464Z,78.43
2023-04-07T23:40:09.013Z,79.38
2023-04-07T23:42:37.987Z,79.24
2023-04-07T23:45:08.301Z,79.68
2023-04-07T23:47:37.001Z,79.34
2023-04-07T23:50:08.889Z,79.23
2023-04-07T23:52:37.565Z,78.93
2023-04-07T23:55:07.297Z,80.41
2023-04-07T23:57:36.067Z,79.64
